createdAt,value
2017-09-12T00:00:26.365Z,0
2017-09-12T00:01:26.689Z,0
2017-09-12T00:02:26.176Z,0
2017-09-12T00:03:27.257Z,0
2017-09-12T00:04:27.630Z,0
2017-09-12T00:05:27.096Z,0
2017-09-12T00:06:27.406Z,0
2017-09-12T00:07:26.898Z,0
2017-09-12T00:08:26.902Z,0
2017-09-12T00:09:27.892Z,0
2017-09-12T00:10:27.589Z,0
2017-09-12T00:11:27.647Z,0
2017-09-12T00:12:28.029Z,0
2017-09-12T00:13:28.363Z,0
2017-09-12T00:14:28.352Z,0
2017-09-12T00:15:29.034Z,0
2017-09-12T00:16:29.065Z,0
2017-09-12T00:17:29.098Z,0
2017-09-12T00:18:29.140Z,0
2017-09-12T00:19:29.190Z,0
2017-09-12T00:20:29.192Z,0
2017-09-12T00:21:29.230Z,0
2017-09-12T00:22:29.600Z,0
2017-09-12T00:23:29.298Z,0
2017-09-12T00:24:29.657Z,0
2017-09-12T00:25:29.665Z,0
2017-09-12T00:26:29.092Z,0
2017-09-12T00:27:29.415Z,0
2017-09-12T00:28:29.458Z,0
2017-09-12T00:29:29.477Z,0
2017-09-12T00:30:29.547Z,0
2017-09-12T00:31:29.907Z,0
2017-09-12T00:32:30.265Z,0
2017-09-12T00:33:29.649Z,0
2017-09-12T00:34:29.995Z,0
2017-09-12T00:35:30.359Z,0
2017-09-12T00:36:30.376Z,0
2017-09-12T00:37:30.122Z,0
2017-09-12T00:38:30.896Z,0
2017-09-12T00:39:30.625Z,0
2017-09-12T00:40:30.626Z,0
2017-09-12T00:41:30.644Z,0
2017-09-12T00:42:30.694Z,0
2017-09-12T00:43:30.745Z,0
2017-09-12T00:44:31.055Z,0
2017-09-12T00:45:31.397Z,0
2017-09-12T00:46:31.433Z,0
2017-09-12T00:47:30.830Z,0
2017-09-12T00:48:30.885Z,0
2017-09-12T00:49:31.224Z,0
2017-09-12T00:50:31.598Z,0
2017-09-12T00:51:31.589Z,0
2017-09-12T00:52:31.003Z,0
2017-09-12T00:53:31.399Z,0
2017-09-12T00:54:31.671Z,0
2017-09-12T00:55:31.481Z,0
2017-09-12T00:56:31.836Z,0
2017-09-12T00:57:31.861Z,0
2017-09-12T00:58:31.564Z,0
2017-09-12T00:59:31.596Z,0
2017-09-12T01:00:31.932Z,0
2017-09-12T01:01:31.664Z,0
2017-09-12T01:02:31.405Z,0
2017-09-12T01:03:31.758Z,0
2017-09-12T01:04:32.464Z,0
2017-09-12T01:05:31.489Z,0
2017-09-12T01:06:32.223Z,0
2017-09-12T01:07:32.238Z,0
2017-09-12T01:08:31.931Z,0
2017-09-12T01:09:32.007Z,0
2017-09-12T01:10:31.996Z,0
2017-09-12T01:11:32.034Z,0
2017-09-12T01:12:32.405Z,0
2017-09-12T01:13:32.158Z,0
2017-09-12T01:14:32.793Z,0
2017-09-12T01:15:33.163Z,0
2017-09-12T01:16:32.836Z,0
2017-09-12T01:17:33.170Z,0
2017-09-12T01:18:32.886Z,0
2017-09-12T01:19:33.229Z,0
2017-09-12T01:20:33.574Z,0
2017-09-12T01:21:33.563Z,0
2017-09-12T01:22:33.314Z,0
2017-09-12T01:23:34.270Z,0
2017-09-12T01:24:34.303Z,0
2017-09-12T01:25:34.335Z,0
2017-09-12T01:26:34.082Z,0
2017-09-12T01:27:34.428Z,0
2017-09-12T01:28:34.424Z,0
2017-09-12T01:29:34.532Z,0
2017-09-12T01:30:34.556Z,0
2017-09-12T01:31:34.590Z,0
2017-09-12T01:32:34.652Z,0
2017-09-12T01:33:35.261Z,0
2017-09-12T01:34:35.594Z,0
2017-09-12T01:35:35.636Z,0
2017-09-12T01:36:35.694Z,0
2017-09-12T01:37:35.387Z,0
2017-09-12T01:38:35.471Z,0
2017-09-12T01:39:35.444Z,0
2017-09-12T01:40:35.794Z,0
2017-09-12T01:41:35.213Z,0
2017-09-12T01:42:35.832Z,0
2017-09-12T01:43:36.524Z,0
2017-09-12T01:44:35.566Z,0
2017-09-12T01:45:36.543Z,0
2017-09-12T01:46:36.562Z,0
2017-09-12T01:47:36.312Z,0
2017-09-12T01:48:36.353Z,0
2017-09-12T01:49:36.725Z,0
2017-09-12T01:50:37.059Z,0
2017-09-12T01:51:37.427Z,0
2017-09-12T01:52:37.459Z,0
2017-09-12T01:53:37.482Z,0
2017-09-12T01:54:37.160Z,0
2017-09-12T01:55:37.192Z,0
2017-09-12T01:56:37.265Z,0
2017-09-12T01:57:37.296Z,0
2017-09-12T01:58:37.325Z,0
2017-09-12T01:59:37.371Z,0
2017-09-12T02:00:37.713Z,0
2017-09-12T02:01:38.146Z,0
2017-09-12T02:02:38.722Z,0
2017-09-12T02:03:38.895Z,0
2017-09-12T02:04:38.596Z,0
2017-09-12T02:05:38.844Z,0
2017-09-12T02:06:38.869Z,0
2017-09-12T02:07:38.599Z,0
2017-09-12T02:08:38.964Z,0
2017-09-12T02:09:38.664Z,0
2017-09-12T02:10:38.968Z,0
2017-09-12T02:11:39.054Z,0
2017-09-12T02:12:39.362Z,0
2017-09-12T02:13:39.400Z,0
2017-09-12T02:14:39.296Z,0
2017-09-12T02:15:38.857Z,0
2017-09-12T02:16:39.192Z,0
2017-09-12T02:17:38.935Z,0
2017-09-12T02:18:39.597Z,0
2017-09-12T02:19:39.612Z,0
2017-09-12T02:20:39.693Z,0
2017-09-12T02:21:39.669Z,0
2017-09-12T02:22:39.665Z,0
2017-09-12T02:23:39.740Z,0
2017-09-12T02:24:40.137Z,0
2017-09-12T02:25:40.145Z,0
2017-09-12T02:26:39.978Z,0
2017-09-12T02:27:40.637Z,0
2017-09-12T02:28:40.668Z,0
2017-09-12T02:29:40.699Z,0
2017-09-12T02:30:40.734Z,0
2017-09-12T02:31:40.461Z,0
2017-09-12T02:32:40.486Z,0
2017-09-12T02:33:40.790Z,0
2017-09-12T02:34:41.182Z,0
2017-09-12T02:35:40.574Z,0
2017-09-12T02:36:41.239Z,0
2017-09-12T02:37:41.312Z,0
2017-09-12T02:38:41.341Z,0
2017-09-12T02:39:41.391Z,0
2017-09-12T02:40:40.782Z,0
2017-09-12T02:41:41.170Z,0
2017-09-12T02:42:41.172Z,0
2017-09-12T02:43:41.520Z,0
2017-09-12T02:44:41.535Z,0
2017-09-12T02:45:40.935Z,0
2017-09-12T02:46:41.273Z,0
2017-09-12T02:47:41.303Z,0
2017-09-12T02:48:41.647Z,0
2017-09-12T02:49:41.065Z,0
2017-09-12T02:50:41.377Z,0
2017-09-12T02:51:41.453Z,0
2017-09-12T02:52:41.161Z,0
2017-09-12T02:53:42.108Z,0
2017-09-12T02:54:42.145Z,0
2017-09-12T02:55:41.537Z,0
2017-09-12T02:56:42.508Z,0
2017-09-12T02:57:41.872Z,0
2017-09-12T02:58:42.828Z,0
2017-09-12T02:59:42.523Z,0
2017-09-12T03:00:42.571Z,0
2017-09-12T03:01:42.577Z,0
2017-09-12T03:02:42.901Z,0
2017-09-12T03:03:43.320Z,0
2017-09-12T03:04:42.698Z,0
2017-09-12T03:05:42.970Z,0
2017-09-12T03:06:43.349Z,0
2017-09-12T03:07:43.370Z,0
2017-09-12T03:08:43.381Z,0
2017-09-12T03:09:43.404Z,0
2017-09-12T03:10:43.215Z,0
2017-09-12T03:11:43.845Z,0
2017-09-12T03:12:43.519Z,0
2017-09-12T03:13:43.883Z,0
2017-09-12T03:14:43.277Z,0
2017-09-12T03:15:43.706Z,0
2017-09-12T03:16:44.354Z,0
2017-09-12T03:17:44.376Z,0
2017-09-12T03:18:44.423Z,0
2017-09-12T03:19:44.453Z,0
2017-09-12T03:20:44.847Z,0
2017-09-12T03:21:44.903Z,0
2017-09-12T03:22:44.579Z,0
2017-09-12T03:23:44.608Z,0
2017-09-12T03:24:44.713Z,0
2017-09-12T03:25:44.706Z,0
2017-09-12T03:26:45.350Z,0
2017-09-12T03:27:45.709Z,0
2017-09-12T03:28:45.765Z,0
2017-09-12T03:29:45.175Z,0
2017-09-12T03:30:45.523Z,0
2017-09-12T03:31:46.601Z,0
2017-09-12T03:32:46.239Z,0
2017-09-12T03:33:46.576Z,0
2017-09-12T03:34:46.580Z,0
2017-09-12T03:35:46.337Z,0
2017-09-12T03:36:46.370Z,0
2017-09-12T03:37:47.003Z,0
2017-09-12T03:38:47.063Z,0
2017-09-12T03:39:46.743Z,0
2017-09-12T03:40:47.086Z,0
2017-09-12T03:41:47.088Z,0
2017-09-12T03:42:47.452Z,0
2017-09-12T03:43:47.185Z,0
2017-09-12T03:44:47.515Z,0
2017-09-12T03:45:47.554Z,0
2017-09-12T03:46:47.601Z,0
2017-09-12T03:47:47.358Z,0
2017-09-12T03:48:47.628Z,0
2017-09-12T03:49:47.346Z,0
2017-09-12T03:50:47.988Z,0
2017-09-12T03:51:47.990Z,0
2017-09-12T03:52:47.408Z,0
2017-09-12T03:53:48.380Z,0
2017-09-12T03:54:47.783Z,0
2017-09-12T03:55:48.472Z,0
2017-09-12T03:56:49.216Z,0
2017-09-12T03:57:49.227Z,0
2017-09-12T03:58:48.621Z,0
2017-09-12T03:59:49.310Z,0
2017-09-12T04:00:48.985Z,0
2017-09-12T04:01:49.347Z,0
2017-09-12T04:02:49.522Z,0
2017-09-12T04:03:49.136Z,0
2017-09-12T04:04:49.490Z,0
2017-09-12T04:05:49.484Z,0
2017-09-12T04:06:49.234Z,0
2017-09-12T04:07:49.927Z,0
2017-09-12T04:08:49.974Z,4
2017-09-12T04:09:50.014Z,4
2017-09-12T04:10:49.691Z,4
2017-09-12T04:11:50.082Z,4
2017-09-12T04:12:50.147Z,4
2017-09-12T04:13:50.416Z,8
2017-09-12T04:14:50.193Z,8
2017-09-12T04:15:50.495Z,4
2017-09-12T04:16:50.523Z,12
2017-09-12T04:17:50.591Z,12
2017-09-12T04:18:49.964Z,12
2017-09-12T04:19:50.634Z,16
2017-09-12T04:20:50.639Z,20
2017-09-12T04:21:50.691Z,20
2017-09-12T04:22:51.299Z,24
2017-09-12T04:23:51.351Z,32
2017-09-12T04:24:50.750Z,36
2017-09-12T04:25:51.729Z,40
2017-09-12T04:26:51.763Z,48
2017-09-12T04:27:51.492Z,56
2017-09-12T04:28:51.829Z,60
2017-09-12T04:29:51.874Z,72
2017-09-12T04:30:51.861Z,80
2017-09-12T04:31:52.235Z,92
2017-09-12T04:32:52.272Z,104
2017-09-12T04:33:52.569Z,112
2017-09-12T04:34:53.245Z,128
2017-09-12T04:35:52.914Z,140
2017-09-12T04:36:53.294Z,152
2017-09-12T04:37:52.683Z,168
2017-09-12T04:38:53.322Z,188
2017-09-12T04:39:53.068Z,204
2017-09-12T04:40:53.413Z,224
2017-09-12T04:41:52.783Z,240
2017-09-12T04:42:53.458Z,260
2017-09-12T04:43:53.801Z,284
2017-09-12T04:44:53.531Z,304
2017-09-12T04:45:53.495Z,328
2017-09-12T04:46:54.193Z,352
2017-09-12T04:47:54.219Z,392
2017-09-12T04:48:54.222Z,440
2017-09-12T04:49:53.687Z,448
2017-09-12T04:50:54.041Z,436
2017-09-12T04:51:54.374Z,416
2017-09-12T04:52:54.092Z,424
2017-09-12T04:53:54.487Z,412
2017-09-12T04:54:55.127Z,444
2017-09-12T04:55:54.834Z,464
2017-09-12T04:56:55.435Z,476
2017-09-12T04:57:55.147Z,500
2017-09-12T04:58:55.201Z,516
2017-09-12T04:59:55.530Z,528
2017-09-12T05:00:55.251Z,524
2017-09-12T05:01:55.279Z,512
2017-09-12T05:02:55.718Z,544
2017-09-12T05:03:55.357Z,588
2017-09-12T05:04:55.692Z,700
2017-09-12T05:05:55.696Z,764
2017-09-12T05:06:55.764Z,756
2017-09-12T05:07:56.103Z,840
2017-09-12T05:08:55.834Z,1044
2017-09-12T05:09:56.165Z,980
2017-09-12T05:10:56.198Z,968
2017-09-12T05:11:55.644Z,1000
2017-09-12T05:12:55.922Z,868
2017-09-12T05:13:55.958Z,740
2017-09-12T05:14:56.343Z,744
2017-09-12T05:15:56.118Z,784
2017-09-12T05:16:56.393Z,812
2017-09-12T05:17:56.469Z,884
2017-09-12T05:18:56.181Z,948
2017-09-12T05:19:55.863Z,976
2017-09-12T05:20:56.164Z,972
2017-09-12T05:21:56.575Z,912
2017-09-12T05:22:56.575Z,1000
2017-09-12T05:23:56.297Z,1344
2017-09-12T05:24:56.046Z,1596
2017-09-12T05:25:56.836Z,1636
2017-09-12T05:26:56.933Z,1728
2017-09-12T05:27:57.237Z,1856
2017-09-12T05:28:57.654Z,1824
2017-09-12T05:29:57.668Z,1868
2017-09-12T05:30:57.633Z,1812
2017-09-12T05:31:57.684Z,1900
2017-09-12T05:32:58.343Z,1992
2017-09-12T05:33:57.710Z,2020
2017-09-12T05:34:58.080Z,2132
2017-09-12T05:35:58.811Z,2204
2017-09-12T05:36:59.136Z,2192
2017-09-12T05:37:58.834Z,2036
2017-09-12T05:38:59.164Z,2132
2017-09-12T05:39:58.897Z,2416
2017-09-12T05:40:59.228Z,2604
2017-09-12T05:41:58.944Z,2840
2017-09-12T05:42:58.966Z,3136
2017-09-12T05:43:59.081Z,3284
2017-09-12T05:44:59.366Z,3344
2017-09-12T05:45:59.685Z,4052
2017-09-12T05:46:59.412Z,3052
2017-09-12T05:47:59.417Z,2876
2017-09-12T05:48:59.147Z,2896
2017-09-12T05:50:00.458Z,3228
2017-09-12T05:51:00.231Z,2896
2017-09-12T05:51:59.882Z,2864
2017-09-12T05:52:59.950Z,2800
2017-09-12T05:54:00.312Z,2732
2017-09-12T05:55:00.304Z,2912
2017-09-12T05:56:00.688Z,2948
2017-09-12T05:57:00.718Z,3052
2017-09-12T05:58:00.441Z,3116
2017-09-12T05:59:00.785Z,3228
2017-09-12T06:00:00.547Z,3100
2017-09-12T06:01:00.540Z,3276
2017-09-12T06:02:00.566Z,3376
2017-09-12T06:03:01.586Z,3408
2017-09-12T06:04:01.497Z,3628
2017-09-12T06:05:01.505Z,3996
2017-09-12T06:06:01.944Z,3676
2017-09-12T06:07:02.343Z,3764
2017-09-12T06:08:02.379Z,3916
2017-09-12T06:09:02.458Z,4080
2017-09-12T06:10:02.158Z,4008
2017-09-12T06:11:02.453Z,4024
2017-09-12T06:12:02.207Z,3988
2017-09-12T06:13:02.518Z,4200
2017-09-12T06:14:02.562Z,4272
2017-09-12T06:15:02.673Z,4048
2017-09-12T06:16:02.687Z,3876
2017-09-12T06:17:02.699Z,3704
2017-09-12T06:18:02.766Z,3704
2017-09-12T06:19:02.480Z,4012
2017-09-12T06:20:02.858Z,4112
2017-09-12T06:21:02.531Z,4012
2017-09-12T06:22:02.491Z,4000
2017-09-12T06:23:02.893Z,3924
2017-09-12T06:24:02.885Z,3864
2017-09-12T06:25:02.616Z,4032
2017-09-12T06:26:02.956Z,4044
2017-09-12T06:27:02.685Z,4000
2017-09-12T06:28:02.713Z,3900
2017-09-12T06:29:03.097Z,4000
2017-09-12T06:30:04.039Z,4136
2017-09-12T06:31:03.153Z,4264
2017-09-12T06:32:03.532Z,4416
2017-09-12T06:33:04.214Z,4808
2017-09-12T06:34:04.257Z,4708
2017-09-12T06:35:03.621Z,6008
2017-09-12T06:36:04.298Z,8612
2017-09-12T06:37:05.043Z,6760
2017-09-12T06:38:05.054Z,10276
2017-09-12T06:39:05.058Z,7272
2017-09-12T06:40:04.813Z,7544
2017-09-12T06:41:05.585Z,7232
2017-09-12T06:42:05.229Z,6568
2017-09-12T06:43:05.001Z,5780
2017-09-12T06:44:05.503Z,5188
2017-09-12T06:45:06.048Z,4864
2017-09-12T06:46:06.386Z,4568
2017-09-12T06:47:06.370Z,4344
2017-09-12T06:48:06.359Z,4216
2017-09-12T06:49:06.092Z,4200
2017-09-12T06:50:06.472Z,4364
2017-09-12T06:51:05.531Z,4532
2017-09-12T06:52:06.471Z,4684
2017-09-12T06:53:06.222Z,4788
2017-09-12T06:54:06.277Z,4832
2017-09-12T06:55:06.706Z,4868
2017-09-12T06:56:06.652Z,4744
2017-09-12T06:57:06.637Z,4784
2017-09-12T06:58:06.676Z,4704
2017-09-12T06:59:06.091Z,4928
2017-09-12T07:00:07.554Z,5156
2017-09-12T07:01:05.839Z,5312
2017-09-12T07:02:06.497Z,5532
2017-09-12T07:03:07.189Z,5684
2017-09-12T07:04:06.583Z,5752
2017-09-12T07:05:06.632Z,5732
2017-09-12T07:06:06.633Z,5812
2017-09-12T07:07:06.992Z,5744
2017-09-12T07:08:07.366Z,5520
2017-09-12T07:09:07.073Z,5196
2017-09-12T07:10:07.385Z,5200
2017-09-12T07:11:07.780Z,5284
2017-09-12T07:12:07.780Z,5308
2017-09-12T07:13:07.520Z,5336
2017-09-12T07:14:07.875Z,5436
2017-09-12T07:15:07.583Z,5556
2017-09-12T07:16:07.693Z,5660
2017-09-12T07:17:07.640Z,5592
2017-09-12T07:18:08.615Z,5676
2017-09-12T07:19:08.020Z,5868
2017-09-12T07:20:08.797Z,6088
2017-09-12T07:21:08.481Z,6372
2017-09-12T07:22:08.883Z,6660
2017-09-12T07:23:08.876Z,6796
2017-09-12T07:24:08.611Z,6796
2017-09-12T07:25:08.984Z,6768
2017-09-12T07:26:08.980Z,6404
2017-09-12T07:27:08.977Z,5908
2017-09-12T07:28:08.736Z,5584
2017-09-12T07:29:08.748Z,5420
2017-09-12T07:30:09.081Z,5264
2017-09-12T07:31:08.582Z,4996
2017-09-12T07:32:09.027Z,5136
2017-09-12T07:33:08.983Z,5304
2017-09-12T07:34:09.423Z,5484
2017-09-12T07:35:10.859Z,5544
2017-09-12T07:36:09.893Z,5408
2017-09-12T07:37:09.602Z,5180
2017-09-12T07:38:10.290Z,5256
2017-09-12T07:39:10.324Z,5448
2017-09-12T07:40:10.383Z,5456
2017-09-12T07:41:10.748Z,5716
2017-09-12T07:42:10.090Z,6000
2017-09-12T07:43:10.498Z,6180
2017-09-12T07:44:10.828Z,6340
2017-09-12T07:45:10.559Z,5924
2017-09-12T07:46:11.192Z,5412
2017-09-12T07:47:10.654Z,4828
2017-09-12T07:48:10.421Z,4720
2017-09-12T07:49:11.525Z,5068
2017-09-12T07:50:11.134Z,5340
2017-09-12T07:51:10.561Z,5264
2017-09-12T07:52:11.007Z,5124
2017-09-12T07:53:11.445Z,5352
2017-09-12T07:54:11.063Z,5420
2017-09-12T07:55:11.788Z,5288
2017-09-12T07:56:11.710Z,5172
2017-09-12T07:57:11.146Z,5184
2017-09-12T07:58:11.442Z,5424
2017-09-12T07:59:11.878Z,5692
2017-09-12T08:00:12.639Z,5936
2017-09-12T08:01:11.589Z,6104
2017-09-12T08:02:11.625Z,5972
2017-09-12T08:03:12.202Z,5600
2017-09-12T08:04:11.826Z,5380
2017-09-12T08:05:12.286Z,5396
2017-09-12T08:06:12.321Z,5788
2017-09-12T08:07:12.371Z,6080
2017-09-12T08:08:13.078Z,6056
2017-09-12T08:09:13.452Z,5972
2017-09-12T08:10:13.219Z,5740
2017-09-12T08:11:13.261Z,5736
2017-09-12T08:12:13.261Z,5692
2017-09-12T08:13:14.023Z,5624
2017-09-12T08:14:13.389Z,6268
2017-09-12T08:15:13.715Z,7176
2017-09-12T08:16:14.103Z,7872
2017-09-12T08:17:14.351Z,7972
2017-09-12T08:18:14.384Z,7776
2017-09-12T08:19:14.442Z,7948
2017-09-12T08:20:13.644Z,8296
2017-09-12T08:21:14.653Z,8640
2017-09-12T08:22:14.355Z,9008
2017-09-12T08:23:14.796Z,8900
2017-09-12T08:24:14.867Z,9172
2017-09-12T08:25:14.892Z,9800
2017-09-12T08:26:14.921Z,10348
2017-09-12T08:27:15.025Z,11108
2017-09-12T08:28:15.643Z,12564
2017-09-12T08:29:15.177Z,14196
2017-09-12T08:30:14.961Z,14280
2017-09-12T08:31:15.944Z,13964
2017-09-12T08:32:16.328Z,16192
2017-09-12T08:33:16.465Z,16864
2017-09-12T08:34:16.421Z,13092
2017-09-12T08:35:16.122Z,12148
2017-09-12T08:36:16.122Z,11440
2017-09-12T08:37:16.503Z,11836
2017-09-12T08:38:16.299Z,10488
2017-09-12T08:39:17.117Z,10352
2017-09-12T08:40:16.465Z,10292
2017-09-12T08:41:17.447Z,10720
2017-09-12T08:42:17.212Z,11868
2017-09-12T08:43:17.487Z,11636
2017-09-12T08:44:16.931Z,11824
2017-09-12T08:45:17.616Z,14148
2017-09-12T08:46:17.954Z,14564
2017-09-12T08:47:17.729Z,13264
2017-09-12T08:48:17.425Z,14560
2017-09-12T08:49:17.462Z,14820
2017-09-12T08:50:18.132Z,15808
2017-09-12T08:51:18.826Z,19840
2017-09-12T08:52:18.236Z,15072
2017-09-12T08:53:18.994Z,15520
2017-09-12T08:54:18.969Z,14708
2017-09-12T08:55:18.668Z,17504
2017-09-12T08:56:19.393Z,14312
2017-09-12T08:57:19.080Z,13224
2017-09-12T08:58:19.437Z,14176
2017-09-12T08:59:19.558Z,17664
2017-09-12T09:00:19.521Z,15328
2017-09-12T09:01:18.617Z,13892
2017-09-12T09:02:19.458Z,12048
2017-09-12T09:03:19.559Z,10152
2017-09-12T09:04:19.491Z,8224
2017-09-12T09:05:19.829Z,6996
2017-09-12T09:06:19.347Z,6724
2017-09-12T09:07:20.389Z,7192
2017-09-12T09:08:20.086Z,7944
2017-09-12T09:09:20.431Z,8104
2017-09-12T09:10:20.169Z,8904
2017-09-12T09:11:20.527Z,9340
2017-09-12T09:12:19.639Z,10732
2017-09-12T09:13:19.967Z,12392
2017-09-12T09:14:20.379Z,12876
2017-09-12T09:15:20.410Z,12596
2017-09-12T09:16:20.176Z,12364
2017-09-12T09:17:21.456Z,13200
2017-09-12T09:18:21.181Z,15456
2017-09-12T09:19:20.526Z,15808
2017-09-12T09:20:21.218Z,13408
2017-09-12T09:21:20.718Z,22656
2017-09-12T09:22:21.621Z,28352
2017-09-12T09:23:21.080Z,45568
2017-09-12T09:24:21.089Z,55104
2017-09-12T09:25:21.740Z,72096
2017-09-12T09:26:21.816Z,66816
2017-09-12T09:27:21.851Z,69536
2017-09-12T09:28:21.577Z,63904
2017-09-12T09:29:21.634Z,61344
2017-09-12T09:30:21.983Z,61504
2017-09-12T09:31:21.403Z,55872
2017-09-12T09:32:22.420Z,59648
2017-09-12T09:33:22.151Z,49376
2017-09-12T09:34:22.495Z,51648
2017-09-12T09:35:22.558Z,48032
2017-09-12T09:36:22.543Z,48096
2017-09-12T09:37:22.617Z,54656
2017-09-12T09:38:23.242Z,58656
2017-09-12T09:39:22.683Z,63200
2017-09-12T09:40:23.092Z,54464
2017-09-12T09:41:22.784Z,48672
2017-09-12T09:42:23.170Z,32032
2017-09-12T09:43:23.514Z,44832
2017-09-12T09:44:23.570Z,20384
2017-09-12T09:45:23.953Z,24992
2017-09-12T09:46:23.324Z,19168
2017-09-12T09:47:23.736Z,16832
2017-09-12T09:48:23.398Z,21152
2017-09-12T09:49:23.140Z,16704
2017-09-12T09:50:23.794Z,17728
2017-09-12T09:51:23.474Z,13692
2017-09-12T09:52:23.573Z,13856
2017-09-12T09:53:23.590Z,13512
2017-09-12T09:54:23.296Z,12504
2017-09-12T09:55:24.280Z,12548
2017-09-12T09:56:24.342Z,10900
2017-09-12T09:57:24.203Z,10792
2017-09-12T09:58:24.105Z,11432
2017-09-12T09:59:24.167Z,11504
2017-09-12T10:00:24.464Z,10652
2017-09-12T10:01:24.273Z,9864
2017-09-12T10:02:24.578Z,9456
2017-09-12T10:03:24.295Z,9652
2017-09-12T10:04:24.483Z,9724
2017-09-12T10:05:24.417Z,9888
2017-09-12T10:06:25.105Z,10652
2017-09-12T10:07:24.883Z,10320
2017-09-12T10:08:24.581Z,11192
2017-09-12T10:09:25.628Z,13300
2017-09-12T10:10:25.396Z,13420
2017-09-12T10:11:25.507Z,14124
2017-09-12T10:12:25.549Z,15224
2017-09-12T10:13:25.931Z,14612
2017-09-12T10:14:26.271Z,15808
2017-09-12T10:15:26.616Z,25120
2017-09-12T10:16:26.035Z,15584
2017-09-12T10:17:26.063Z,14096
2017-09-12T10:18:25.780Z,16000
2017-09-12T10:19:26.129Z,16384
2017-09-12T10:20:26.145Z,17472
2017-09-12T10:21:26.526Z,17184
2017-09-12T10:22:26.563Z,16800
2017-09-12T10:23:27.260Z,16480
2017-09-12T10:24:26.935Z,14808
2017-09-12T10:25:26.680Z,13560
2017-09-12T10:26:27.047Z,12156
2017-09-12T10:27:27.093Z,12064
2017-09-12T10:28:27.436Z,12216
2017-09-12T10:29:26.575Z,10884
2017-09-12T10:30:27.408Z,11992
2017-09-12T10:31:27.228Z,11768
2017-09-12T10:32:26.941Z,10876
2017-09-12T10:33:27.313Z,10764
2017-09-12T10:34:27.369Z,13756
2017-09-12T10:35:27.753Z,11552
2017-09-12T10:36:27.457Z,9692
2017-09-12T10:37:28.431Z,7980
2017-09-12T10:38:27.821Z,8240
2017-09-12T10:39:28.501Z,8868
2017-09-12T10:40:27.896Z,13476
2017-09-12T10:41:28.560Z,18784
2017-09-12T10:42:28.020Z,18112
2017-09-12T10:43:28.692Z,18176
2017-09-12T10:44:29.069Z,18048
2017-09-12T10:45:29.064Z,15584
2017-09-12T10:46:29.410Z,15424
2017-09-12T10:47:29.764Z,14156
2017-09-12T10:48:29.820Z,13188
2017-09-12T10:49:29.514Z,13088
2017-09-12T10:50:29.564Z,13368
2017-09-12T10:51:30.272Z,13736
2017-09-12T10:52:29.635Z,13536
2017-09-12T10:53:30.308Z,13000
2017-09-12T10:54:30.052Z,12376
2017-09-12T10:55:30.049Z,11396
2017-09-12T10:56:30.373Z,11080
2017-09-12T10:57:30.411Z,11196
2017-09-12T10:58:30.750Z,13468
2017-09-12T10:59:29.947Z,12784
2017-09-12T11:00:30.920Z,12336
2017-09-12T11:01:31.599Z,10888
2017-09-12T11:02:31.005Z,9608
2017-09-12T11:03:31.375Z,8852
2017-09-12T11:04:32.034Z,9016
2017-09-12T11:05:31.764Z,9580
2017-09-12T11:06:31.785Z,9228
2017-09-12T11:07:31.843Z,8048
2017-09-12T11:08:32.246Z,7140
2017-09-12T11:09:31.970Z,6884
2017-09-12T11:10:32.668Z,5860
2017-09-12T11:11:33.012Z,5084
2017-09-12T11:12:32.716Z,4952
2017-09-12T11:13:32.429Z,4836
2017-09-12T11:14:32.485Z,4620
2017-09-12T11:15:33.140Z,4008
2017-09-12T11:16:33.182Z,3352
2017-09-12T11:17:32.912Z,3304
2017-09-12T11:18:32.949Z,2768
2017-09-12T11:19:33.018Z,2452
2017-09-12T11:20:32.718Z,2388
2017-09-12T11:21:33.075Z,2304
2017-09-12T11:22:33.450Z,2344
2017-09-12T11:23:33.508Z,2352
2017-09-12T11:24:33.882Z,2616
2017-09-12T11:25:33.967Z,3668
2017-09-12T11:26:34.535Z,5052
2017-09-12T11:27:34.033Z,5508
2017-09-12T11:28:34.411Z,5504
2017-09-12T11:29:34.768Z,6216
2017-09-12T11:30:34.847Z,5932
2017-09-12T11:31:35.144Z,4208
2017-09-12T11:32:35.268Z,3284
2017-09-12T11:33:35.246Z,2668
2017-09-12T11:34:34.910Z,2932
2017-09-12T11:35:35.572Z,3220
2017-09-12T11:36:35.330Z,3788
2017-09-12T11:37:35.692Z,4360
2017-09-12T11:38:36.095Z,4724
2017-09-12T11:39:36.073Z,6000
2017-09-12T11:40:35.769Z,7012
2017-09-12T11:41:35.836Z,7748
2017-09-12T11:42:36.223Z,7816
2017-09-12T11:43:36.235Z,8376
2017-09-12T11:44:36.668Z,8940
2017-09-12T11:45:37.268Z,9424
2017-09-12T11:46:36.986Z,10204
2017-09-12T11:47:37.019Z,9736
2017-09-12T11:48:36.745Z,8680
2017-09-12T11:49:36.792Z,8656
2017-09-12T11:50:37.105Z,8180
2017-09-12T11:51:37.540Z,7064
2017-09-12T11:52:37.623Z,6496
2017-09-12T11:53:37.329Z,5424
2017-09-12T11:54:37.342Z,4760
2017-09-12T11:55:37.393Z,4372
2017-09-12T11:56:37.823Z,4392
2017-09-12T11:57:38.144Z,4640
2017-09-12T11:58:37.877Z,4956
2017-09-12T11:59:38.532Z,5352
2017-09-12T12:00:38.262Z,5556
2017-09-12T12:01:38.912Z,5692
2017-09-12T12:02:38.752Z,5820
2017-09-12T12:03:39.490Z,5988
2017-09-12T12:04:39.183Z,5996
2017-09-12T12:05:39.564Z,6180
2017-09-12T12:06:39.235Z,6188
2017-09-12T12:07:39.316Z,6040
2017-09-12T12:08:39.339Z,5872
2017-09-12T12:09:39.718Z,5644
2017-09-12T12:10:39.450Z,5588
2017-09-12T12:11:40.101Z,5472
2017-09-12T12:12:40.134Z,5220
2017-09-12T12:13:40.283Z,5136
2017-09-12T12:14:40.551Z,5224
2017-09-12T12:15:40.291Z,4752
2017-09-12T12:16:40.267Z,4136
2017-09-12T12:17:40.352Z,3644
2017-09-12T12:18:40.085Z,3356
2017-09-12T12:19:40.807Z,3292
2017-09-12T12:20:40.829Z,3156
2017-09-12T12:21:41.248Z,3172
2017-09-12T12:22:40.962Z,3364
2017-09-12T12:23:41.669Z,3740
2017-09-12T12:24:41.392Z,4088
2017-09-12T12:25:41.694Z,4476
2017-09-12T12:26:41.751Z,4368
2017-09-12T12:27:42.120Z,4060
2017-09-12T12:28:42.128Z,3888
2017-09-12T12:29:42.143Z,3740
2017-09-12T12:30:42.216Z,3540
2017-09-12T12:31:41.907Z,3252
2017-09-12T12:32:42.305Z,2812
2017-09-12T12:33:42.314Z,2296
2017-09-12T12:34:42.052Z,1912
2017-09-12T12:35:42.711Z,1768
2017-09-12T12:36:42.746Z,1796
2017-09-12T12:37:42.804Z,1820
2017-09-12T12:38:42.808Z,1860
2017-09-12T12:39:42.546Z,1948
2017-09-12T12:40:42.575Z,2084
2017-09-12T12:41:42.639Z,2188
2017-09-12T12:42:43.286Z,2316
2017-09-12T12:43:43.001Z,2528
2017-09-12T12:44:43.018Z,2652
2017-09-12T12:45:43.379Z,2772
2017-09-12T12:46:43.716Z,3020
2017-09-12T12:47:43.128Z,3192
2017-09-12T12:48:43.803Z,3320
2017-09-12T12:49:43.258Z,3408
2017-09-12T12:50:43.910Z,3564
2017-09-12T12:51:43.352Z,3528
2017-09-12T12:52:43.354Z,3524
2017-09-12T12:53:43.747Z,3356
2017-09-12T12:54:43.508Z,3056
2017-09-12T12:55:43.857Z,2832
2017-09-12T12:56:44.238Z,2596
2017-09-12T12:57:44.322Z,2656
2017-09-12T12:58:44.312Z,2480
2017-09-12T12:59:44.967Z,2128
2017-09-12T13:00:44.695Z,1600
2017-09-12T13:01:45.008Z,1436
2017-09-12T13:02:44.755Z,1524
2017-09-12T13:03:44.792Z,1748
2017-09-12T13:04:45.448Z,1692
2017-09-12T13:05:45.482Z,1676
2017-09-12T13:06:45.210Z,1944
2017-09-12T13:07:45.546Z,1968
2017-09-12T13:08:45.604Z,1796
2017-09-12T13:09:45.313Z,1656
2017-09-12T13:10:45.342Z,1800
2017-09-12T13:11:45.108Z,2060
2017-09-12T13:12:46.077Z,2244
2017-09-12T13:13:45.821Z,2416
2017-09-12T13:14:46.162Z,2508
2017-09-12T13:15:45.881Z,2692
2017-09-12T13:16:46.520Z,3084
2017-09-12T13:17:46.528Z,3548
2017-09-12T13:18:46.546Z,3860
2017-09-12T13:19:46.631Z,4460
2017-09-12T13:20:46.631Z,5340
2017-09-12T13:21:47.052Z,5876
2017-09-12T13:22:47.045Z,6088
2017-09-12T13:23:47.333Z,6540
2017-09-12T13:24:46.467Z,6580
2017-09-12T13:25:47.209Z,6212
2017-09-12T13:26:47.559Z,5728
2017-09-12T13:27:47.878Z,5440
2017-09-12T13:28:47.613Z,5704
2017-09-12T13:29:48.038Z,5832
2017-09-12T13:30:47.739Z,5304
2017-09-12T13:31:47.729Z,4824
2017-09-12T13:32:47.738Z,4044
2017-09-12T13:33:47.794Z,3368
2017-09-12T13:34:47.514Z,2892
2017-09-12T13:35:48.243Z,2548
2017-09-12T13:36:48.273Z,2264
2017-09-12T13:37:48.582Z,2108
2017-09-12T13:38:48.665Z,2020
2017-09-12T13:39:48.354Z,1956
2017-09-12T13:40:48.721Z,1944
2017-09-12T13:41:47.853Z,1956
2017-09-12T13:42:48.175Z,1976
2017-09-12T13:43:48.873Z,1984